SBMO

Zumbi dos Palmares Airport

Maceió, Brazil
TAF SBMO 171000Z 1712/1812 10013KT 9000 SCT022 TX29/1716Z TN22/1809Z BECMG 1720/1722 14006KT BECMG 1810/1811 11009KT RMK PEA
Issued Valid From Valid To
Dec-17 @ 10:00 UTC
(2 hours ago)
Dec-17 @ 12:00 UTC
(19 minutes ago)
Dec-18 @ 12:00 UTC
(in 24 hours)
Dec-17 @ 12:00 to Dec-17 @ 20:00
TAF SBMO 171000Z 1712/1812 10013KT 9000 SCT022 TX29/1716Z TN22/1809Z
Wind Visibility Clouds
100° at 13 knots 8,996 meters
  • Scattered at 2,200' AGL
Becoming Dec-17 @ 20:00 to Dec-18 @ 10:00
BECMG 1720/1722 14006KT
Wind Visibility Clouds
140° at 6 knots 8,996 meters
  • Scattered at 2,200' AGL
Becoming Dec-18 @ 10:00 to Dec-18 @ 12:00
BECMG 1810/1811 11009KT RMK PEA
Wind Visibility Clouds
110° at 9 knots 8,996 meters
  • Scattered at 2,200' AGL
TAF SBMO 171000Z 1712/1812 10013KT 9000 SCT022 TX29/1716Z TN22/1809Z BECMG 1720/1722 14006KT BECMG 1810/1811 11009KT RMK PEA
Issued Dec-17 @ 10:00 UTC
(2 hours ago)
Valid From Dec-17 @ 12:00 UTC
(19 minutes ago)
Valid To Dec-18 @ 12:00 UTC
(in 24 hours)
Dec-17 @ 12:00 - Dec-17 @ 20:00
Wind Visibility
100° at 13 knots 8,996 meters
Clouds
  • Scattered at 2,200' AGL
Becoming Dec-17 @ 20:00 - Dec-18 @ 10:00
Wind Visibility
140° at 6 knots 8,996 meters
Clouds
  • Scattered at 2,200' AGL
Becoming Dec-18 @ 10:00 - Dec-18 @ 12:00
Wind Visibility
110° at 9 knots 8,996 meters
Clouds
  • Scattered at 2,200' AGL